Acton, United Kingdom
Current Conditions -  °F | °C
As of 12:50 PM on Thursday 27 Nov 2014 (Local Time) from EGWU Reporting Station
Broken Clouds Broken Clouds  
Wind Chill: 50°   Ceiling: 3700
Heat Index: 50°   Visibility: 6mi
Dew Point: 45°   Wind: 5mph
Humidity: 82%   Direction: 190°S
Pressure: 29.59"   Gusts: NA
Location:  51.51°N, 0.28°W
Report Text: EGWU 271250Z 19004KT 9999 FEW012 BKN037 10/07 Q1002 TEMPO SCT012
Loading
Personal Weather Stations






























Interactive Weather Map New forecast layout! Learn more

10-Day Weather Forecast

Advertisements
Track Severe Weather on mobile